sensor_id;sensor_type;location;lat;lon;timestamp;P1;durP1;ratioP1;P2;durP2;ratioP2
51614;SDS011;37695;52.960;6.188;2023-03-02T00:02:21;15.73;;;11.02;;
51614;SDS011;37695;52.960;6.188;2023-03-02T00:04:48;16.08;;;12.30;;
51614;SDS011;37695;52.960;6.188;2023-03-02T00:07:24;16.52;;;11.93;;
51614;SDS011;37695;52.960;6.188;2023-03-02T00:09:52;17.88;;;13.52;;
51614;SDS011;37695;52.960;6.188;2023-03-02T00:12:19;17.65;;;11.65;;
51614;SDS011;37695;52.960;6.188;2023-03-02T00:14:44;16.70;;;12.45;;
51614;SDS011;37695;52.960;6.188;2023-03-02T00:17:10;15.93;;;11.88;;
51614;SDS011;37695;52.960;6.188;2023-03-02T00:19:35;15.88;;;11.38;;
51614;SDS011;37695;52.960;6.188;2023-03-02T00:22:02;16.42;;;12.10;;
51614;SDS011;37695;52.960;6.188;2023-03-02T00:24:28;15.20;;;12.02;;
51614;SDS011;37695;52.960;6.188;2023-03-02T00:26:53;15.15;;;11.65;;
51614;SDS011;37695;52.960;6.188;2023-03-02T00:29:19;17.88;;;12.68;;
51614;SDS011;37695;52.960;6.188;2023-03-02T00:31:45;16.67;;;12.77;;
51614;SDS011;37695;52.960;6.188;2023-03-02T00:34:10;15.23;;;12.25;;
51614;SDS011;37695;52.960;6.188;2023-03-02T00:36:36;17.15;;;12.48;;
51614;SDS011;37695;52.960;6.188;2023-03-02T00:39:01;17.63;;;13.40;;
51614;SDS011;37695;52.960;6.188;2023-03-02T00:41:28;17.02;;;13.40;;
51614;SDS011;37695;52.960;6.188;2023-03-02T00:43:54;18.73;;;13.77;;
51614;SDS011;37695;52.960;6.188;2023-03-02T00:46:20;16.25;;;12.40;;
51614;SDS011;37695;52.960;6.188;2023-03-02T00:48:48;18.20;;;13.57;;
51614;SDS011;37695;52.960;6.188;2023-03-02T00:51:14;18.60;;;14.43;;
51614;SDS011;37695;52.960;6.188;2023-03-02T00:53:40;16.80;;;12.70;;
51614;SDS011;37695;52.960;6.188;2023-03-02T00:56:06;19.60;;;14.70;;
51614;SDS011;37695;52.960;6.188;2023-03-02T00:58:32;19.48;;;14.95;;
51614;SDS011;37695;52.960;6.188;2023-03-02T01:00:58;21.52;;;15.48;;
51614;SDS011;37695;52.960;6.188;2023-03-02T01:03:29;20.63;;;14.48;;
51614;SDS011;37695;52.960;6.188;2023-03-02T01:05:55;20.98;;;15.27;;
51614;SDS011;37695;52.960;6.188;2023-03-02T01:08:22;21.98;;;15.93;;
51614;SDS011;37695;52.960;6.188;2023-03-02T01:10:49;19.83;;;15.10;;
51614;SDS011;37695;52.960;6.188;2023-03-02T01:13:15;24.67;;;15.32;;
51614;SDS011;37695;52.960;6.188;2023-03-02T01:15:42;23.35;;;15.60;;
51614;SDS011;37695;52.960;6.188;2023-03-02T01:18:07;22.40;;;15.95;;
51614;SDS011;37695;52.960;6.188;2023-03-02T01:20:33;21.08;;;15.65;;
51614;SDS011;37695;52.960;6.188;2023-03-02T01:22:58;19.65;;;14.40;;
51614;SDS011;37695;52.960;6.188;2023-03-02T01:25:24;20.75;;;15.43;;
51614;SDS011;37695;52.960;6.188;2023-03-02T01:27:49;19.50;;;14.95;;
51614;SDS011;37695;52.960;6.188;2023-03-02T01:30:15;22.10;;;15.50;;
51614;SDS011;37695;52.960;6.188;2023-03-02T01:32:40;21.10;;;15.27;;
51614;SDS011;37695;52.960;6.188;2023-03-02T01:35:06;20.02;;;15.25;;
51614;SDS011;37695;52.960;6.188;2023-03-02T01:37:32;21.58;;;15.68;;
51614;SDS011;37695;52.960;6.188;2023-03-02T01:39:58;22.25;;;16.40;;
51614;SDS011;37695;52.960;6.188;2023-03-02T01:42:23;25.88;;;18.02;;
51614;SDS011;37695;52.960;6.188;2023-03-02T01:44:50;23.15;;;16.90;;
51614;SDS011;37695;52.960;6.188;2023-03-02T01:47:22;25.58;;;18.15;;
51614;SDS011;37695;52.960;6.188;2023-03-02T01:52:33;24.60;;;18.73;;
51614;SDS011;37695;52.960;6.188;2023-03-02T01:55:03;24.42;;;17.17;;
51614;SDS011;37695;52.960;6.188;2023-03-02T01:57:32;23.75;;;18.05;;
51614;SDS011;37695;52.960;6.188;2023-03-02T02:00:08;24.98;;;18.42;;
51614;SDS011;37695;52.960;6.188;2023-03-02T02:02:38;25.35;;;18.08;;
51614;SDS011;37695;52.960;6.188;2023-03-02T02:05:07;24.27;;;17.08;;
51614;SDS011;37695;52.960;6.188;2023-03-02T02:07:37;23.98;;;18.10;;
51614;SDS011;37695;52.960;6.188;2023-03-02T02:10:04;23.70;;;16.83;;
51614;SDS011;37695;52.960;6.188;2023-03-02T02:12:30;28.10;;;18.48;;
51614;SDS011;37695;52.960;6.188;2023-03-02T02:14:55;24.02;;;17.67;;
51614;SDS011;37695;52.960;6.188;2023-03-02T02:17:24;23.83;;;18.67;;
51614;SDS011;37695;52.960;6.188;2023-03-02T02:23:03;26.50;;;18.50;;
51614;SDS011;37695;52.960;6.188;2023-03-02T02:28:36;25.45;;;18.17;;
51614;SDS011;37695;52.960;6.188;2023-03-02T02:31:32;23.98;;;17.33;;
51614;SDS011;37695;52.960;6.188;2023-03-02T02:34:05;23.70;;;17.33;;
51614;SDS011;37695;52.960;6.188;2023-03-02T02:36:46;24.58;;;17.92;;
51614;SDS011;37695;52.960;6.188;2023-03-02T02:39:15;25.33;;;16.73;;
51614;SDS011;37695;52.960;6.188;2023-03-02T02:41:45;22.60;;;16.52;;
51614;SDS011;37695;52.960;6.188;2023-03-02T02:44:13;27.25;;;17.67;;
51614;SDS011;37695;52.960;6.188;2023-03-02T02:46:41;23.80;;;17.33;;
51614;SDS011;37695;52.960;6.188;2023-03-02T02:49:41;28.63;;;17.65;;
51614;SDS011;37695;52.960;6.188;2023-03-02T02:52:02;25.10;;;17.38;;
51614;SDS011;37695;52.960;6.188;2023-03-02T02:54:29;24.08;;;16.20;;
51614;SDS011;37695;52.960;6.188;2023-03-02T02:56:56;20.52;;;16.50;;
51614;SDS011;37695;52.960;6.188;2023-03-02T02:59:27;23.02;;;17.35;;
51614;SDS011;37695;52.960;6.188;2023-03-02T03:01:56;22.83;;;16.42;;
51614;SDS011;37695;52.960;6.188;2023-03-02T03:04:23;21.88;;;15.43;;
51614;SDS011;37695;52.960;6.188;2023-03-02T03:06:52;27.05;;;16.13;;
51614;SDS011;37695;52.960;6.188;2023-03-02T03:09:22;23.02;;;16.02;;
51614;SDS011;37695;52.960;6.188;2023-03-02T03:11:53;27.10;;;16.80;;
51614;SDS011;37695;52.960;6.188;2023-03-02T03:14:26;23.98;;;16.98;;
51614;SDS011;37695;52.960;6.188;2023-03-02T03:16:57;22.85;;;17.10;;
51614;SDS011;37695;52.960;6.188;2023-03-02T03:19:24;21.88;;;15.55;;
51614;SDS011;37695;52.960;6.188;2023-03-02T03:21:56;22.80;;;15.90;;
51614;SDS011;37695;52.960;6.188;2023-03-02T03:24:24;23.40;;;15.55;;
51614;SDS011;37695;52.960;6.188;2023-03-02T03:26:51;24.35;;;16.38;;
51614;SDS011;37695;52.960;6.188;2023-03-02T03:29:18;24.70;;;16.42;;
51614;SDS011;37695;52.960;6.188;2023-03-02T03:31:48;23.13;;;16.33;;
51614;SDS011;37695;52.960;6.188;2023-03-02T03:34:18;23.83;;;16.48;;
51614;SDS011;37695;52.960;6.188;2023-03-02T03:36:44;22.77;;;17.25;;
51614;SDS011;37695;52.960;6.188;2023-03-02T03:39:10;22.15;;;16.08;;
51614;SDS011;37695;52.960;6.188;2023-03-02T03:41:36;23.48;;;16.35;;
51614;SDS011;37695;52.960;6.188;2023-03-02T03:44:02;24.17;;;16.50;;
51614;SDS011;37695;52.960;6.188;2023-03-02T03:46:28;26.05;;;16.38;;
51614;SDS011;37695;52.960;6.188;2023-03-02T03:48:54;22.10;;;16.48;;
51614;SDS011;37695;52.960;6.188;2023-03-02T03:51:20;22.23;;;15.88;;
51614;SDS011;37695;52.960;6.188;2023-03-02T03:53:46;21.83;;;16.13;;
51614;SDS011;37695;52.960;6.188;2023-03-02T03:56:23;26.15;;;16.42;;
51614;SDS011;37695;52.960;6.188;2023-03-02T03:58:57;22.35;;;15.70;;
51614;SDS011;37695;52.960;6.188;2023-03-02T04:01:40;20.98;;;15.18;;
51614;SDS011;37695;52.960;6.188;2023-03-02T04:04:08;22.67;;;15.45;;
51614;SDS011;37695;52.960;6.188;2023-03-02T04:06:37;21.60;;;14.80;;
51614;SDS011;37695;52.960;6.188;2023-03-02T04:09:03;23.92;;;16.33;;
51614;SDS011;37695;52.960;6.188;2023-03-02T04:11:33;21.13;;;15.27;;
51614;SDS011;37695;52.960;6.188;2023-03-02T04:14:00;20.63;;;15.35;;
51614;SDS011;37695;52.960;6.188;2023-03-02T04:16:27;21.80;;;15.25;;
51614;SDS011;37695;52.960;6.188;2023-03-02T04:18:53;22.13;;;14.90;;
51614;SDS011;37695;52.960;6.188;2023-03-02T04:21:18;20.23;;;14.00;;
51614;SDS011;37695;52.960;6.188;2023-03-02T04:23:44;21.60;;;14.45;;
51614;SDS011;37695;52.960;6.188;2023-03-02T04:26:10;21.80;;;15.32;;
51614;SDS011;37695;52.960;6.188;2023-03-02T04:28:35;25.58;;;14.60;;
51614;SDS011;37695;52.960;6.188;2023-03-02T04:31:01;19.65;;;13.98;;
51614;SDS011;37695;52.960;6.188;2023-03-02T04:33:26;23.50;;;15.00;;
51614;SDS011;37695;52.960;6.188;2023-03-02T04:35:52;20.00;;;14.00;;
51614;SDS011;37695;52.960;6.188;2023-03-02T04:38:18;19.92;;;13.73;;
51614;SDS011;37695;52.960;6.188;2023-03-02T04:40:44;18.75;;;14.25;;
51614;SDS011;37695;52.960;6.188;2023-03-02T04:43:10;22.30;;;14.25;;
51614;SDS011;37695;52.960;6.188;2023-03-02T04:45:36;19.63;;;13.88;;
51614;SDS011;37695;52.960;6.188;2023-03-02T04:48:02;22.83;;;14.70;;
51614;SDS011;37695;52.960;6.188;2023-03-02T04:50:28;20.55;;;14.15;;
51614;SDS011;37695;52.960;6.188;2023-03-02T04:52:54;17.08;;;13.00;;
51614;SDS011;37695;52.960;6.188;2023-03-02T04:55:22;19.48;;;13.68;;
51614;SDS011;37695;52.960;6.188;2023-03-02T04:57:49;21.02;;;13.55;;
51614;SDS011;37695;52.960;6.188;2023-03-02T05:00:15;19.02;;;13.65;;
51614;SDS011;37695;52.960;6.188;2023-03-02T05:02:43;18.83;;;13.52;;
51614;SDS011;37695;52.960;6.188;2023-03-02T05:05:13;19.38;;;13.02;;
51614;SDS011;37695;52.960;6.188;2023-03-02T05:07:41;33.13;;;14.57;;
51614;SDS011;37695;52.960;6.188;2023-03-02T05:10:08;20.98;;;14.02;;
51614;SDS011;37695;52.960;6.188;2023-03-02T05:12:35;22.77;;;14.90;;
51614;SDS011;37695;52.960;6.188;2023-03-02T05:15:18;22.27;;;13.65;;
51614;SDS011;37695;52.960;6.188;2023-03-02T05:17:45;19.23;;;13.48;;
51614;SDS011;37695;52.960;6.188;2023-03-02T05:20:11;43.05;;;14.95;;
51614;SDS011;37695;52.960;6.188;2023-03-02T05:22:37;24.58;;;14.75;;
51614;SDS011;37695;52.960;6.188;2023-03-02T05:25:02;18.35;;;13.50;;
51614;SDS011;37695;52.960;6.188;2023-03-02T05:27:29;23.50;;;15.35;;
51614;SDS011;37695;52.960;6.188;2023-03-02T05:29:54;20.92;;;15.02;;
51614;SDS011;37695;52.960;6.188;2023-03-02T05:32:20;29.83;;;13.65;;
51614;SDS011;37695;52.960;6.188;2023-03-02T05:34:45;20.98;;;14.02;;
51614;SDS011;37695;52.960;6.188;2023-03-02T05:37:11;19.90;;;14.90;;
51614;SDS011;37695;52.960;6.188;2023-03-02T05:39:36;19.23;;;13.73;;
51614;SDS011;37695;52.960;6.188;2023-03-02T05:42:03;25.63;;;14.18;;
51614;SDS011;37695;52.960;6.188;2023-03-02T05:44:29;22.73;;;15.15;;
51614;SDS011;37695;52.960;6.188;2023-03-02T05:46:55;20.58;;;15.02;;
51614;SDS011;37695;52.960;6.188;2023-03-02T05:49:21;23.13;;;15.00;;
51614;SDS011;37695;52.960;6.188;2023-03-02T05:51:46;21.27;;;14.90;;
51614;SDS011;37695;52.960;6.188;2023-03-02T05:54:12;23.80;;;15.52;;
51614;SDS011;37695;52.960;6.188;2023-03-02T05:56:37;21.00;;;14.55;;
51614;SDS011;37695;52.960;6.188;2023-03-02T05:59:03;22.15;;;15.07;;
51614;SDS011;37695;52.960;6.188;2023-03-02T06:01:28;80.28;;;17.15;;
51614;SDS011;37695;52.960;6.188;2023-03-02T06:03:54;24.83;;;14.32;;
51614;SDS011;37695;52.960;6.188;2023-03-02T06:06:20;25.23;;;16.10;;
51614;SDS011;37695;52.960;6.188;2023-03-02T06:08:45;21.23;;;15.07;;
51614;SDS011;37695;52.960;6.188;2023-03-02T06:11:11;21.30;;;16.33;;
51614;SDS011;37695;52.960;6.188;2023-03-02T06:13:37;44.08;;;16.38;;
51614;SDS011;37695;52.960;6.188;2023-03-02T06:16:03;23.67;;;14.88;;
51614;SDS011;37695;52.960;6.188;2023-03-02T06:18:29;26.13;;;15.95;;
51614;SDS011;37695;52.960;6.188;2023-03-02T06:20:55;22.27;;;15.68;;
51614;SDS011;37695;52.960;6.188;2023-03-02T06:23:20;24.02;;;15.35;;
51614;SDS011;37695;52.960;6.188;2023-03-02T06:25:46;25.60;;;15.10;;
51614;SDS011;37695;52.960;6.188;2023-03-02T06:28:13;26.85;;;14.82;;
51614;SDS011;37695;52.960;6.188;2023-03-02T06:30:40;20.98;;;14.15;;
51614;SDS011;37695;52.960;6.188;2023-03-02T06:33:06;25.60;;;15.85;;
51614;SDS011;37695;52.960;6.188;2023-03-02T06:35:32;23.17;;;14.30;;
51614;SDS011;37695;52.960;6.188;2023-03-02T06:37:58;30.75;;;15.32;;
51614;SDS011;37695;52.960;6.188;2023-03-02T06:40:24;23.00;;;14.98;;
51614;SDS011;37695;52.960;6.188;2023-03-02T06:42:49;25.25;;;15.68;;
51614;SDS011;37695;52.960;6.188;2023-03-02T06:45:15;80.07;;;19.52;;
51614;SDS011;37695;52.960;6.188;2023-03-02T06:47:41;25.65;;;16.45;;
51614;SDS011;37695;52.960;6.188;2023-03-02T06:50:07;29.02;;;16.55;;
51614;SDS011;37695;52.960;6.188;2023-03-02T06:52:33;28.05;;;16.77;;
51614;SDS011;37695;52.960;6.188;2023-03-02T06:54:59;25.98;;;16.77;;
51614;SDS011;37695;52.960;6.188;2023-03-02T06:57:25;29.83;;;16.38;;
51614;SDS011;37695;52.960;6.188;2023-03-02T06:59:57;34.25;;;17.48;;
51614;SDS011;37695;52.960;6.188;2023-03-02T07:02:24;24.35;;;15.35;;
51614;SDS011;37695;52.960;6.188;2023-03-02T07:04:50;33.25;;;16.23;;
51614;SDS011;37695;52.960;6.188;2023-03-02T07:07:15;29.85;;;17.20;;
51614;SDS011;37695;52.960;6.188;2023-03-02T07:09:41;33.05;;;16.83;;
51614;SDS011;37695;52.960;6.188;2023-03-02T07:12:06;33.00;;;18.17;;
51614;SDS011;37695;52.960;6.188;2023-03-02T07:14:34;36.35;;;18.65;;
51614;SDS011;37695;52.960;6.188;2023-03-02T07:17:02;29.92;;;17.40;;
51614;SDS011;37695;52.960;6.188;2023-03-02T07:19:28;31.75;;;17.80;;
51614;SDS011;37695;52.960;6.188;2023-03-02T07:21:54;52.92;;;18.42;;
51614;SDS011;37695;52.960;6.188;2023-03-02T07:24:20;31.50;;;17.98;;
51614;SDS011;37695;52.960;6.188;2023-03-02T07:26:46;38.10;;;18.42;;
51614;SDS011;37695;52.960;6.188;2023-03-02T07:29:11;28.85;;;17.42;;
51614;SDS011;37695;52.960;6.188;2023-03-02T07:31:37;38.00;;;17.67;;
51614;SDS011;37695;52.960;6.188;2023-03-02T07:34:03;29.20;;;16.92;;
51614;SDS011;37695;52.960;6.188;2023-03-02T07:36:28;33.22;;;17.98;;
51614;SDS011;37695;52.960;6.188;2023-03-02T07:38:54;44.70;;;16.98;;
51614;SDS011;37695;52.960;6.188;2023-03-02T07:41:20;30.33;;;16.27;;
51614;SDS011;37695;52.960;6.188;2023-03-02T07:43:46;26.63;;;15.00;;
51614;SDS011;37695;52.960;6.188;2023-03-02T07:46:12;30.77;;;15.82;;
51614;SDS011;37695;52.960;6.188;2023-03-02T07:48:38;24.27;;;14.77;;
51614;SDS011;37695;52.960;6.188;2023-03-02T07:51:04;27.55;;;15.45;;
51614;SDS011;37695;52.960;6.188;2023-03-02T07:53:30;24.48;;;13.77;;
51614;SDS011;37695;52.960;6.188;2023-03-02T07:55:56;30.40;;;13.68;;
51614;SDS011;37695;52.960;6.188;2023-03-02T07:58:21;31.55;;;14.30;;
51614;SDS011;37695;52.960;6.188;2023-03-02T08:00:48;20.90;;;13.02;;
51614;SDS011;37695;52.960;6.188;2023-03-02T08:03:14;23.05;;;12.68;;
51614;SDS011;37695;52.960;6.188;2023-03-02T08:05:40;24.92;;;13.07;;
51614;SDS011;37695;52.960;6.188;2023-03-02T08:08:05;21.77;;;13.02;;
51614;SDS011;37695;52.960;6.188;2023-03-02T08:10:34;20.48;;;12.57;;
51614;SDS011;37695;52.960;6.188;2023-03-02T08:13:00;29.52;;;13.00;;
51614;SDS011;37695;52.960;6.188;2023-03-02T08:15:26;24.58;;;13.40;;
51614;SDS011;37695;52.960;6.188;2023-03-02T08:17:51;26.60;;;14.20;;
51614;SDS011;37695;52.960;6.188;2023-03-02T08:20:17;21.35;;;13.13;;
51614;SDS011;37695;52.960;6.188;2023-03-02T08:22:43;21.48;;;13.80;;
51614;SDS011;37695;52.960;6.188;2023-03-02T08:25:08;19.63;;;12.40;;
51614;SDS011;37695;52.960;6.188;2023-03-02T08:27:34;22.77;;;14.07;;
51614;SDS011;37695;52.960;6.188;2023-03-02T08:29:59;19.95;;;13.18;;
51614;SDS011;37695;52.960;6.188;2023-03-02T08:32:25;23.25;;;12.82;;
51614;SDS011;37695;52.960;6.188;2023-03-02T08:34:50;24.85;;;13.82;;
51614;SDS011;37695;52.960;6.188;2023-03-02T08:37:17;23.48;;;14.63;;
51614;SDS011;37695;52.960;6.188;2023-03-02T08:39:43;19.63;;;13.45;;
51614;SDS011;37695;52.960;6.188;2023-03-02T08:42:08;19.95;;;13.60;;
51614;SDS011;37695;52.960;6.188;2023-03-02T08:44:34;20.08;;;12.90;;
51614;SDS011;37695;52.960;6.188;2023-03-02T08:46:59;21.00;;;13.35;;
51614;SDS011;37695;52.960;6.188;2023-03-02T08:49:25;20.70;;;13.48;;
51614;SDS011;37695;52.960;6.188;2023-03-02T08:51:51;21.90;;;14.52;;
51614;SDS011;37695;52.960;6.188;2023-03-02T08:54:17;27.73;;;14.30;;
51614;SDS011;37695;52.960;6.188;2023-03-02T08:56:44;23.02;;;14.45;;
51614;SDS011;37695;52.960;6.188;2023-03-02T08:59:10;21.70;;;13.80;;
51614;SDS011;37695;52.960;6.188;2023-03-02T09:01:37;21.75;;;14.02;;
51614;SDS011;37695;52.960;6.188;2023-03-02T09:04:05;21.55;;;13.85;;
51614;SDS011;37695;52.960;6.188;2023-03-02T09:06:33;21.52;;;13.50;;
51614;SDS011;37695;52.960;6.188;2023-03-02T09:09:01;24.65;;;13.30;;
51614;SDS011;37695;52.960;6.188;2023-03-02T09:11:26;21.20;;;12.50;;
51614;SDS011;37695;52.960;6.188;2023-03-02T09:13:52;21.38;;;12.82;;
51614;SDS011;37695;52.960;6.188;2023-03-02T09:16:18;27.52;;;13.52;;
51614;SDS011;37695;52.960;6.188;2023-03-02T09:18:44;21.63;;;13.43;;
51614;SDS011;37695;52.960;6.188;2023-03-02T09:21:11;21.15;;;14.07;;
51614;SDS011;37695;52.960;6.188;2023-03-02T09:23:37;19.00;;;13.32;;
51614;SDS011;37695;52.960;6.188;2023-03-02T09:26:03;22.63;;;13.68;;
51614;SDS011;37695;52.960;6.188;2023-03-02T09:28:28;21.25;;;13.68;;
51614;SDS011;37695;52.960;6.188;2023-03-02T09:30:58;22.58;;;13.85;;
51614;SDS011;37695;52.960;6.188;2023-03-02T09:33:25;26.92;;;14.88;;
51614;SDS011;37695;52.960;6.188;2023-03-02T09:35:52;20.63;;;14.32;;
51614;SDS011;37695;52.960;6.188;2023-03-02T09:38:17;27.02;;;15.32;;
51614;SDS011;37695;52.960;6.188;2023-03-02T09:52:19;21.77;;;14.35;;
51614;SDS011;37695;52.960;6.188;2023-03-02T09:54:52;21.15;;;14.10;;
51614;SDS011;37695;52.960;6.188;2023-03-02T09:57:20;22.48;;;14.10;;
51614;SDS011;37695;52.960;6.188;2023-03-02T10:00:01;21.55;;;13.63;;
51614;SDS011;37695;52.960;6.188;2023-03-02T10:05:01;22.23;;;14.32;;
51614;SDS011;37695;52.960;6.188;2023-03-02T10:07:33;19.45;;;14.05;;
51614;SDS011;37695;52.960;6.188;2023-03-02T10:10:23;20.73;;;14.32;;
51614;SDS011;37695;52.960;6.188;2023-03-02T10:18:22;19.35;;;12.82;;
51614;SDS011;37695;52.960;6.188;2023-03-02T10:21:02;17.35;;;12.60;;
51614;SDS011;37695;52.960;6.188;2023-03-02T10:23:55;18.90;;;13.55;;
51614;SDS011;37695;52.960;6.188;2023-03-02T10:29:50;19.83;;;13.48;;
51614;SDS011;37695;52.960;6.188;2023-03-02T10:32:12;17.02;;;13.45;;
51614;SDS011;37695;52.960;6.188;2023-03-02T10:34:47;17.63;;;12.75;;
51614;SDS011;37695;52.960;6.188;2023-03-02T10:37:25;17.60;;;12.25;;
51614;SDS011;37695;52.960;6.188;2023-03-02T10:39:53;16.27;;;12.02;;
51614;SDS011;37695;52.960;6.188;2023-03-02T10:42:27;16.17;;;12.10;;
51614;SDS011;37695;52.960;6.188;2023-03-02T10:47:59;17.98;;;13.23;;
51614;SDS011;37695;52.960;6.188;2023-03-02T10:50:29;17.33;;;12.95;;
51614;SDS011;37695;52.960;6.188;2023-03-02T10:52:55;20.13;;;13.65;;
51614;SDS011;37695;52.960;6.188;2023-03-02T10:55:21;18.05;;;13.20;;
51614;SDS011;37695;52.960;6.188;2023-03-02T10:57:57;17.83;;;13.38;;
51614;SDS011;37695;52.960;6.188;2023-03-02T11:00:26;18.77;;;13.60;;
51614;SDS011;37695;52.960;6.188;2023-03-02T11:03:01;16.67;;;12.02;;
51614;SDS011;37695;52.960;6.188;2023-03-02T11:05:44;17.77;;;13.00;;
51614;SDS011;37695;52.960;6.188;2023-03-02T11:08:15;17.33;;;12.90;;
51614;SDS011;37695;52.960;6.188;2023-03-02T11:13:33;20.02;;;13.48;;
51614;SDS011;37695;52.960;6.188;2023-03-02T11:18:59;17.75;;;12.70;;
51614;SDS011;37695;52.960;6.188;2023-03-02T11:21:34;18.33;;;13.63;;
51614;SDS011;37695;52.960;6.188;2023-03-02T11:26:58;20.27;;;13.63;;
51614;SDS011;37695;52.960;6.188;2023-03-02T11:29:41;18.05;;;12.88;;
51614;SDS011;37695;52.960;6.188;2023-03-02T11:34:50;16.63;;;12.05;;
51614;SDS011;37695;52.960;6.188;2023-03-02T11:37:29;17.07;;;12.20;;
51614;SDS011;37695;52.960;6.188;2023-03-02T11:40:04;16.92;;;12.15;;
51614;SDS011;37695;52.960;6.188;2023-03-02T11:42:46;17.80;;;13.03;;
51614;SDS011;37695;52.960;6.188;2023-03-02T11:47:38;14.73;;;11.73;;
51614;SDS011;37695;52.960;6.188;2023-03-02T11:50:16;15.77;;;11.15;;
51614;SDS011;37695;52.960;6.188;2023-03-02T11:52:45;14.05;;;11.23;;
51614;SDS011;37695;52.960;6.188;2023-03-02T11:57:52;16.20;;;12.10;;
51614;SDS011;37695;52.960;6.188;2023-03-02T12:03:00;15.88;;;12.20;;
51614;SDS011;37695;52.960;6.188;2023-03-02T12:05:31;16.67;;;12.65;;
51614;SDS011;37695;52.960;6.188;2023-03-02T12:08:04;17.63;;;12.63;;
51614;SDS011;37695;52.960;6.188;2023-03-02T12:10:37;16.33;;;12.02;;
51614;SDS011;37695;52.960;6.188;2023-03-02T12:15:59;17.55;;;12.55;;
51614;SDS011;37695;52.960;6.188;2023-03-02T12:18:29;14.63;;;11.13;;
51614;SDS011;37695;52.960;6.188;2023-03-02T12:21:19;15.98;;;11.77;;
51614;SDS011;37695;52.960;6.188;2023-03-02T12:28:54;13.95;;;9.93;;
51614;SDS011;37695;52.960;6.188;2023-03-02T12:31:23;13.88;;;9.95;;
51614;SDS011;37695;52.960;6.188;2023-03-02T12:33:49;14.25;;;10.13;;
51614;SDS011;37695;52.960;6.188;2023-03-02T12:36:30;16.75;;;11.07;;
51614;SDS011;37695;52.960;6.188;2023-03-02T12:39:32;15.68;;;10.50;;
51614;SDS011;37695;52.960;6.188;2023-03-02T12:45:26;15.40;;;10.13;;
51614;SDS011;37695;52.960;6.188;2023-03-02T12:51:04;15.40;;;9.95;;
51614;SDS011;37695;52.960;6.188;2023-03-02T12:53:35;13.15;;;9.13;;
51614;SDS011;37695;52.960;6.188;2023-03-02T12:56:03;14.02;;;10.10;;
51614;SDS011;37695;52.960;6.188;2023-03-02T12:58:31;15.73;;;9.05;;
51614;SDS011;37695;52.960;6.188;2023-03-02T13:01:02;13.35;;;9.13;;
51614;SDS011;37695;52.960;6.188;2023-03-02T13:03:28;13.63;;;8.68;;
51614;SDS011;37695;52.960;6.188;2023-03-02T13:06:14;13.80;;;9.27;;
51614;SDS011;37695;52.960;6.188;2023-03-02T13:08:42;16.45;;;9.75;;
51614;SDS011;37695;52.960;6.188;2023-03-02T13:11:09;14.32;;;9.38;;
51614;SDS011;37695;52.960;6.188;2023-03-02T13:13:36;14.60;;;10.10;;
51614;SDS011;37695;52.960;6.188;2023-03-02T13:16:05;15.48;;;9.77;;
51614;SDS011;37695;52.960;6.188;2023-03-02T13:18:43;14.73;;;9.38;;
51614;SDS011;37695;52.960;6.188;2023-03-02T13:21:09;14.60;;;9.75;;
51614;SDS011;37695;52.960;6.188;2023-03-02T13:23:43;14.70;;;10.00;;
51614;SDS011;37695;52.960;6.188;2023-03-02T13:26:25;15.18;;;10.48;;
51614;SDS011;37695;52.960;6.188;2023-03-02T13:29:17;17.58;;;11.43;;
51614;SDS011;37695;52.960;6.188;2023-03-02T13:31:47;17.42;;;12.13;;
51614;SDS011;37695;52.960;6.188;2023-03-02T13:34:23;18.48;;;11.75;;
51614;SDS011;37695;52.960;6.188;2023-03-02T13:36:51;19.95;;;11.57;;
51614;SDS011;37695;52.960;6.188;2023-03-02T13:39:19;17.55;;;10.93;;
51614;SDS011;37695;52.960;6.188;2023-03-02T13:41:53;16.10;;;10.25;;
51614;SDS011;37695;52.960;6.188;2023-03-02T13:44:21;15.90;;;10.77;;
51614;SDS011;37695;52.960;6.188;2023-03-02T13:46:51;13.35;;;9.65;;
51614;SDS011;37695;52.960;6.188;2023-03-02T13:49:30;12.88;;;9.52;;
51614;SDS011;37695;52.960;6.188;2023-03-02T13:52:02;15.05;;;10.73;;
51614;SDS011;37695;52.960;6.188;2023-03-02T13:54:39;15.45;;;10.50;;
51614;SDS011;37695;52.960;6.188;2023-03-02T13:57:10;13.65;;;9.63;;
51614;SDS011;37695;52.960;6.188;2023-03-02T13:59:40;13.15;;;8.98;;
51614;SDS011;37695;52.960;6.188;2023-03-02T14:02:17;12.85;;;9.65;;
51614;SDS011;37695;52.960;6.188;2023-03-02T14:04:47;13.20;;;9.32;;
51614;SDS011;37695;52.960;6.188;2023-03-02T14:07:12;16.02;;;9.63;;
51614;SDS011;37695;52.960;6.188;2023-03-02T14:09:38;14.10;;;9.07;;
51614;SDS011;37695;52.960;6.188;2023-03-02T14:12:04;14.18;;;9.55;;
51614;SDS011;37695;52.960;6.188;2023-03-02T14:14:30;13.07;;;9.05;;
51614;SDS011;37695;52.960;6.188;2023-03-02T14:17:00;13.57;;;9.77;;
51614;SDS011;37695;52.960;6.188;2023-03-02T14:19:25;13.95;;;9.30;;
51614;SDS011;37695;52.960;6.188;2023-03-02T14:21:51;14.07;;;9.88;;
51614;SDS011;37695;52.960;6.188;2023-03-02T14:24:16;14.00;;;9.93;;
51614;SDS011;37695;52.960;6.188;2023-03-02T14:26:43;13.93;;;9.88;;
51614;SDS011;37695;52.960;6.188;2023-03-02T14:29:17;12.75;;;8.82;;
51614;SDS011;37695;52.960;6.188;2023-03-02T14:31:49;15.05;;;9.13;;
51614;SDS011;37695;52.960;6.188;2023-03-02T14:34:15;13.93;;;8.93;;
51614;SDS011;37695;52.960;6.188;2023-03-02T14:36:42;14.20;;;10.10;;
51614;SDS011;37695;52.960;6.188;2023-03-02T14:41:56;13.43;;;9.65;;
51614;SDS011;37695;52.960;6.188;2023-03-02T14:44:21;12.73;;;9.10;;
51614;SDS011;37695;52.960;6.188;2023-03-02T14:46:47;12.32;;;8.38;;
51614;SDS011;37695;52.960;6.188;2023-03-02T14:49:13;12.18;;;9.35;;
51614;SDS011;37695;52.960;6.188;2023-03-02T14:51:39;13.30;;;9.35;;
51614;SDS011;37695;52.960;6.188;2023-03-02T14:54:07;15.25;;;10.52;;
51614;SDS011;37695;52.960;6.188;2023-03-02T14:56:39;14.80;;;9.48;;
51614;SDS011;37695;52.960;6.188;2023-03-02T14:59:08;13.40;;;9.55;;
51614;SDS011;37695;52.960;6.188;2023-03-02T15:01:37;12.98;;;8.50;;
51614;SDS011;37695;52.960;6.188;2023-03-02T15:04:03;13.98;;;9.70;;
51614;SDS011;37695;52.960;6.188;2023-03-02T15:06:30;13.02;;;9.00;;
51614;SDS011;37695;52.960;6.188;2023-03-02T15:08:59;11.38;;;8.57;;
51614;SDS011;37695;52.960;6.188;2023-03-02T15:11:25;12.27;;;8.95;;
51614;SDS011;37695;52.960;6.188;2023-03-02T15:13:51;13.93;;;10.13;;
51614;SDS011;37695;52.960;6.188;2023-03-02T15:16:17;13.40;;;8.85;;
51614;SDS011;37695;52.960;6.188;2023-03-02T15:18:43;12.20;;;8.85;;
51614;SDS011;37695;52.960;6.188;2023-03-02T15:21:13;11.30;;;7.97;;
51614;SDS011;37695;52.960;6.188;2023-03-02T15:23:41;11.75;;;8.50;;
51614;SDS011;37695;52.960;6.188;2023-03-02T15:26:08;11.30;;;8.52;;
51614;SDS011;37695;52.960;6.188;2023-03-02T15:28:34;11.23;;;7.82;;
51614;SDS011;37695;52.960;6.188;2023-03-02T15:31:07;13.93;;;8.48;;
51614;SDS011;37695;52.960;6.188;2023-03-02T15:33:33;11.60;;;8.20;;
51614;SDS011;37695;52.960;6.188;2023-03-02T15:35:59;10.50;;;7.93;;
51614;SDS011;37695;52.960;6.188;2023-03-02T15:38:24;11.88;;;8.90;;
51614;SDS011;37695;52.960;6.188;2023-03-02T15:40:50;12.20;;;9.48;;
51614;SDS011;37695;52.960;6.188;2023-03-02T15:43:16;11.30;;;7.95;;